sensor_id;sensor_type;location;lat;lon;timestamp;pressure;altitude;pressure_sealevel;temperature;humidity
44198;BME280;30157;55.512;37.764;2023-11-21T00:02:04;99466.84;;;-8.78;82.15
44198;BME280;30157;55.512;37.764;2023-11-21T00:04:30;99447.88;;;-8.86;82.19
44198;BME280;30157;55.512;37.764;2023-11-21T00:06:56;99392.72;;;-9.22;82.15
44198;BME280;30157;55.512;37.764;2023-11-21T00:09:21;99467.38;;;-8.70;82.25
44198;BME280;30157;55.512;37.764;2023-11-21T00:11:47;99451.19;;;-8.74;81.81
44198;BME280;30157;55.512;37.764;2023-11-21T00:14:13;99460.47;;;-8.73;81.53
44198;BME280;30157;55.512;37.764;2023-11-21T00:16:41;99454.28;;;-8.78;81.34
44198;BME280;30157;55.512;37.764;2023-11-21T00:19:07;99450.56;;;-8.83;81.33
44198;BME280;30157;55.512;37.764;2023-11-21T00:21:33;99458.63;;;-8.75;81.59
44198;BME280;30157;55.512;37.764;2023-11-21T00:23:58;99428.97;;;-8.93;81.65
44198;BME280;30157;55.512;37.764;2023-11-21T00:26:24;99456.13;;;-8.75;81.59
44198;BME280;30157;55.512;37.764;2023-11-21T00:29:00;99430.72;;;-8.92;81.67
44198;BME280;30157;55.512;37.764;2023-11-21T00:31:26;99440.06;;;-8.77;81.30
44198;BME280;30157;55.512;37.764;2023-11-21T00:33:51;99461.00;;;-8.65;81.23
44198;BME280;30157;55.512;37.764;2023-11-21T00:36:18;99387.16;;;-9.04;81.45
44198;BME280;30157;55.512;37.764;2023-11-21T00:38:43;99411.38;;;-8.93;81.15
44198;BME280;30157;55.512;37.764;2023-11-21T00:41:09;99460.00;;;-8.67;81.03
44198;BME280;30157;55.512;37.764;2023-11-21T00:43:35;99443.25;;;-8.80;81.05
44198;BME280;30157;55.512;37.764;2023-11-21T00:46:04;99451.78;;;-8.65;80.90
44198;BME280;30157;55.512;37.764;2023-11-21T00:48:30;99435.78;;;-8.79;80.95
44198;BME280;30157;55.512;37.764;2023-11-21T00:50:56;99392.38;;;-9.01;81.15
44198;BME280;30157;55.512;37.764;2023-11-21T00:53:22;99429.78;;;-8.81;80.73
44198;BME280;30157;55.512;37.764;2023-11-21T00:55:48;99451.03;;;-8.64;80.90
44198;BME280;30157;55.512;37.764;2023-11-21T00:58:13;99436.56;;;-8.80;80.68
44198;BME280;30157;55.512;37.764;2023-11-21T01:00:40;99424.41;;;-8.99;80.65
44198;BME280;30157;55.512;37.764;2023-11-21T01:03:07;99456.06;;;-8.64;80.71
44198;BME280;30157;55.512;37.764;2023-11-21T01:05:34;99407.78;;;-8.97;80.65
44198;BME280;30157;55.512;37.764;2023-11-21T01:08:00;99458.84;;;-8.59;80.09
44198;BME280;30157;55.512;37.764;2023-11-21T01:10:26;99399.28;;;-8.99;80.24
44198;BME280;30157;55.512;37.764;2023-11-21T01:12:51;99398.38;;;-8.99;80.42
44198;BME280;30157;55.512;37.764;2023-11-21T01:15:17;99459.75;;;-8.58;80.12
44198;BME280;30157;55.512;37.764;2023-11-21T01:17:43;99295.63;;;-9.58;79.83
44198;BME280;30157;55.512;37.764;2023-11-21T01:20:09;99436.47;;;-8.81;79.99
44198;BME280;30157;55.512;37.764;2023-11-21T01:22:41;99421.06;;;-8.86;80.21
44198;BME280;30157;55.512;37.764;2023-11-21T01:25:07;99455.19;;;-8.64;79.82
44198;BME280;30157;55.512;37.764;2023-11-21T01:27:34;99437.56;;;-8.77;79.51
44198;BME280;30157;55.512;37.764;2023-11-21T01:30:02;99462.34;;;-8.70;79.83
44198;BME280;30157;55.512;37.764;2023-11-21T01:32:30;99419.91;;;-8.91;80.27
44198;BME280;30157;55.512;37.764;2023-11-21T01:34:56;99440.63;;;-8.82;79.82
44198;BME280;30157;55.512;37.764;2023-11-21T01:37:23;99457.50;;;-8.67;79.88
44198;BME280;30157;55.512;37.764;2023-11-21T01:39:49;99459.25;;;-8.66;79.73
44198;BME280;30157;55.512;37.764;2023-11-21T01:42:15;99459.16;;;-8.68;80.13
44198;BME280;30157;55.512;37.764;2023-11-21T01:44:41;99425.41;;;-8.83;80.14
44198;BME280;30157;55.512;37.764;2023-11-21T01:47:08;99437.22;;;-8.82;80.07
44198;BME280;30157;55.512;37.764;2023-11-21T01:49:35;99448.88;;;-8.71;80.18
44198;BME280;30157;55.512;37.764;2023-11-21T01:52:02;99456.63;;;-8.68;79.91
44198;BME280;30157;55.512;37.764;2023-11-21T01:54:30;99404.50;;;-8.96;79.26
44198;BME280;30157;55.512;37.764;2023-11-21T01:57:01;99472.50;;;-8.69;79.39
44198;BME280;30157;55.512;37.764;2023-11-21T01:59:34;99456.03;;;-8.77;79.39
44198;BME280;30157;55.512;37.764;2023-11-21T02:02:00;99424.41;;;-8.99;79.22
44198;BME280;30157;55.512;37.764;2023-11-21T02:04:26;99407.84;;;-9.08;79.40
44198;BME280;30157;55.512;37.764;2023-11-21T02:06:52;99425.28;;;-8.98;79.48
44198;BME280;30157;55.512;37.764;2023-11-21T02:09:29;99400.00;;;-9.13;79.59
44198;BME280;30157;55.512;37.764;2023-11-21T02:11:56;99462.13;;;-8.73;79.55
44198;BME280;30157;55.512;37.764;2023-11-21T02:14:28;99396.72;;;-9.12;79.73
44198;BME280;30157;55.512;37.764;2023-11-21T02:16:55;99460.38;;;-8.74;80.22
44198;BME280;30157;55.512;37.764;2023-11-21T02:19:23;99451.94;;;-8.75;79.81
44198;BME280;30157;55.512;37.764;2023-11-21T02:21:52;99461.84;;;-8.65;79.91
44198;BME280;30157;55.512;37.764;2023-11-21T02:24:22;99403.06;;;-8.92;79.82
44198;BME280;30157;55.512;37.764;2023-11-21T02:26:49;99340.19;;;-9.31;79.27
44198;BME280;30157;55.512;37.764;2023-11-21T02:29:20;99388.59;;;-9.08;79.50
44198;BME280;30157;55.512;37.764;2023-11-21T02:31:54;99396.03;;;-9.09;79.43
44198;BME280;30157;55.512;37.764;2023-11-21T02:34:22;99415.44;;;-8.95;79.44
44198;BME280;30157;55.512;37.764;2023-11-21T02:36:48;99469.50;;;-8.63;79.26
44198;BME280;30157;55.512;37.764;2023-11-21T02:39:17;99456.13;;;-8.75;79.06
44198;BME280;30157;55.512;37.764;2023-11-21T02:41:44;99473.56;;;-8.65;79.53
44198;BME280;30157;55.512;37.764;2023-11-21T02:44:10;99451.00;;;-8.77;79.08
44198;BME280;30157;55.512;37.764;2023-11-21T02:46:37;99422.84;;;-8.97;79.25
44198;BME280;30157;55.512;37.764;2023-11-21T02:49:03;99470.84;;;-8.68;79.37
44198;BME280;30157;55.512;37.764;2023-11-21T02:51:32;99480.13;;;-8.67;78.85
44198;BME280;30157;55.512;37.764;2023-11-21T02:53:59;99498.50;;;-8.68;78.85
44198;BME280;30157;55.512;37.764;2023-11-21T02:56:28;99503.34;;;-8.71;79.23
44198;BME280;30157;55.512;37.764;2023-11-21T02:58:59;99478.06;;;-8.86;79.54
44198;BME280;30157;55.512;37.764;2023-11-21T03:01:25;99509.09;;;-8.61;79.29
44198;BME280;30157;55.512;37.764;2023-11-21T03:03:52;99442.97;;;-8.97;79.05
44198;BME280;30157;55.512;37.764;2023-11-21T03:06:18;99468.84;;;-8.86;79.09
44198;BME280;30157;55.512;37.764;2023-11-21T03:08:44;99440.94;;;-9.02;79.04
44198;BME280;30157;55.512;37.764;2023-11-21T03:11:10;99457.41;;;-8.94;78.32
44198;BME280;30157;55.512;37.764;2023-11-21T03:13:36;99455.47;;;-8.98;78.08
44198;BME280;30157;55.512;37.764;2023-11-21T03:16:02;99438.59;;;-9.13;78.51
44198;BME280;30157;55.512;37.764;2023-11-21T03:18:27;99438.59;;;-9.13;78.64
44198;BME280;30157;55.512;37.764;2023-11-21T03:20:54;99505.00;;;-8.72;79.12
44198;BME280;30157;55.512;37.764;2023-11-21T03:23:20;99512.94;;;-8.66;78.56
44198;BME280;30157;55.512;37.764;2023-11-21T03:25:46;99455.56;;;-8.97;78.73
44198;BME280;30157;55.512;37.764;2023-11-21T03:28:11;99486.50;;;-8.72;78.10
44198;BME280;30157;55.512;37.764;2023-11-21T03:30:37;99453.84;;;-8.98;77.76
44198;BME280;30157;55.512;37.764;2023-11-21T03:33:03;99511.53;;;-8.62;77.65
44198;BME280;30157;55.512;37.764;2023-11-21T03:35:29;99511.22;;;-8.67;77.36
44198;BME280;30157;55.512;37.764;2023-11-21T03:37:54;99390.19;;;-9.47;77.39
44198;BME280;30157;55.512;37.764;2023-11-21T03:40:21;99468.78;;;-8.99;77.64
44198;BME280;30157;55.512;37.764;2023-11-21T03:42:47;99447.75;;;-9.13;77.48
44198;BME280;30157;55.512;37.764;2023-11-21T03:45:13;99516.59;;;-8.74;77.19
44198;BME280;30157;55.512;37.764;2023-11-21T03:47:43;99517.78;;;-8.69;77.18
44198;BME280;30157;55.512;37.764;2023-11-21T03:50:09;99493.47;;;-8.82;76.57
44198;BME280;30157;55.512;37.764;2023-11-21T03:52:37;99484.63;;;-8.88;76.34
44198;BME280;30157;55.512;37.764;2023-11-21T03:55:03;99521.16;;;-8.68;76.60
44198;BME280;30157;55.512;37.764;2023-11-21T03:57:29;99508.00;;;-8.77;76.60
44198;BME280;30157;55.512;37.764;2023-11-21T03:59:55;99437.31;;;-9.19;76.37
44198;BME280;30157;55.512;37.764;2023-11-21T04:02:21;99454.66;;;-9.10;76.57
44198;BME280;30157;55.512;37.764;2023-11-21T04:04:46;99508.00;;;-8.77;76.30
44198;BME280;30157;55.512;37.764;2023-11-21T04:07:12;99519.13;;;-8.74;76.80
44198;BME280;30157;55.512;37.764;2023-11-21T04:09:39;99484.50;;;-8.90;76.57
44198;BME280;30157;55.512;37.764;2023-11-21T04:12:07;99527.28;;;-8.65;76.70
44198;BME280;30157;55.512;37.764;2023-11-21T04:14:35;99522.91;;;-8.67;75.57
44198;BME280;30157;55.512;37.764;2023-11-21T04:17:01;99503.97;;;-8.87;75.89
44198;BME280;30157;55.512;37.764;2023-11-21T04:19:26;99510.94;;;-8.83;76.09
44198;BME280;30157;55.512;37.764;2023-11-21T04:21:52;99512.81;;;-8.81;76.06
44198;BME280;30157;55.512;37.764;2023-11-21T04:24:18;99521.34;;;-8.79;75.95
44198;BME280;30157;55.512;37.764;2023-11-21T04:26:44;99523.19;;;-8.76;75.78
44198;BME280;30157;55.512;37.764;2023-11-21T04:29:10;99531.50;;;-8.77;76.40
44198;BME280;30157;55.512;37.764;2023-11-21T04:31:35;99518.31;;;-8.86;75.83
44198;BME280;30157;55.512;37.764;2023-11-21T04:34:01;99529.00;;;-8.77;76.17
44198;BME280;30157;55.512;37.764;2023-11-21T04:36:29;99481.53;;;-9.09;75.80
44198;BME280;30157;55.512;37.764;2023-11-21T04:38:56;99487.25;;;-9.12;75.39
44198;BME280;30157;55.512;37.764;2023-11-21T04:41:22;99539.28;;;-8.86;75.82
44198;BME280;30157;55.512;37.764;2023-11-21T04:43:48;99487.69;;;-9.18;75.89
44198;BME280;30157;55.512;37.764;2023-11-21T04:46:14;99537.47;;;-8.88;76.26
44198;BME280;30157;55.512;37.764;2023-11-21T04:48:40;99480.72;;;-9.22;76.16
44198;BME280;30157;55.512;37.764;2023-11-21T04:51:06;99529.78;;;-8.90;76.24
44198;BME280;30157;55.512;37.764;2023-11-21T04:53:32;99533.97;;;-8.90;76.21
44198;BME280;30157;55.512;37.764;2023-11-21T04:55:58;99524.94;;;-9.00;76.45
44198;BME280;30157;55.512;37.764;2023-11-21T04:58:24;99530.06;;;-8.99;76.63
44198;BME280;30157;55.512;37.764;2023-11-21T05:00:49;99542.16;;;-8.93;76.74
44198;BME280;30157;55.512;37.764;2023-11-21T05:03:15;99543.25;;;-8.89;77.07
44198;BME280;30157;55.512;37.764;2023-11-21T05:05:41;99541.22;;;-8.95;76.91
44198;BME280;30157;55.512;37.764;2023-11-21T05:08:07;99545.13;;;-8.87;76.83
44198;BME280;30157;55.512;37.764;2023-11-21T05:10:33;99475.16;;;-9.30;76.91
44198;BME280;30157;55.512;37.764;2023-11-21T05:12:59;99553.53;;;-8.86;77.02
44198;BME280;30157;55.512;37.764;2023-11-21T05:15:25;99556.31;;;-8.95;76.81
44198;BME280;30157;55.512;37.764;2023-11-21T05:17:53;99548.78;;;-9.07;76.96
44198;BME280;30157;55.512;37.764;2023-11-21T05:20:19;99527.47;;;-9.12;77.33
44198;BME280;30157;55.512;37.764;2023-11-21T05:22:49;99538.50;;;-9.10;77.24
44198;BME280;30157;55.512;37.764;2023-11-21T05:25:16;99542.75;;;-9.09;77.23
44198;BME280;30157;55.512;37.764;2023-11-21T05:27:48;99556.44;;;-9.05;77.94
44198;BME280;30157;55.512;37.764;2023-11-21T05:30:14;99556.97;;;-8.98;77.59
44198;BME280;30157;55.512;37.764;2023-11-21T05:32:41;99562.75;;;-8.99;77.79
44198;BME280;30157;55.512;37.764;2023-11-21T05:35:10;99550.94;;;-9.00;78.08
44198;BME280;30157;55.512;37.764;2023-11-21T05:37:41;99553.16;;;-9.04;78.34
44198;BME280;30157;55.512;37.764;2023-11-21T05:40:08;99562.09;;;-8.96;78.28
44198;BME280;30157;55.512;37.764;2023-11-21T05:42:35;99561.09;;;-8.98;78.21
44198;BME280;30157;55.512;37.764;2023-11-21T05:45:01;99523.66;;;-9.19;78.61
44198;BME280;30157;55.512;37.764;2023-11-21T05:47:46;99567.31;;;-8.93;78.81
44198;BME280;30157;55.512;37.764;2023-11-21T05:50:15;99564.50;;;-8.98;78.95
44198;BME280;30157;55.512;37.764;2023-11-21T05:52:42;99578.56;;;-8.88;78.93
44198;BME280;30157;55.512;37.764;2023-11-21T05:55:09;99577.03;;;-8.86;78.86
44198;BME280;30157;55.512;37.764;2023-11-21T05:57:36;99573.84;;;-8.83;79.16
44198;BME280;30157;55.512;37.764;2023-11-21T06:00:09;99579.66;;;-8.84;79.17
44198;BME280;30157;55.512;37.764;2023-11-21T06:02:40;99586.00;;;-8.77;79.17
44198;BME280;30157;55.512;37.764;2023-11-21T06:05:06;99539.28;;;-9.11;79.14
44198;BME280;30157;55.512;37.764;2023-11-21T06:07:33;99592.56;;;-8.80;79.05
44198;BME280;30157;55.512;37.764;2023-11-21T06:09:59;99591.03;;;-8.77;79.16
44198;BME280;30157;55.512;37.764;2023-11-21T06:12:24;99595.63;;;-8.84;79.28
44198;BME280;30157;55.512;37.764;2023-11-21T06:14:50;99576.50;;;-8.82;79.49
44198;BME280;30157;55.512;37.764;2023-11-21T06:17:16;99595.69;;;-8.70;79.26
44198;BME280;30157;55.512;37.764;2023-11-21T06:19:44;99551.38;;;-8.93;79.31
44198;BME280;30157;55.512;37.764;2023-11-21T06:22:11;99600.16;;;-8.66;78.95
44198;BME280;30157;55.512;37.764;2023-11-21T06:24:37;99594.38;;;-8.65;79.31
44198;BME280;30157;55.512;37.764;2023-11-21T06:27:04;99573.41;;;-8.77;79.46
44198;BME280;30157;55.512;37.764;2023-11-21T06:29:30;99601.91;;;-8.65;79.07
44198;BME280;30157;55.512;37.764;2023-11-21T06:31:57;99591.53;;;-8.70;79.62
44198;BME280;30157;55.512;37.764;2023-11-21T06:34:24;99622.03;;;-8.53;79.69
44198;BME280;30157;55.512;37.764;2023-11-21T06:36:49;99601.19;;;-8.51;79.86
44198;BME280;30157;55.512;37.764;2023-11-21T06:39:15;99540.47;;;-8.81;79.92
44198;BME280;30157;55.512;37.764;2023-11-21T06:41:43;99607.69;;;-8.41;79.63
44198;BME280;30157;55.512;37.764;2023-11-21T06:44:08;99614.22;;;-8.31;79.20
44198;BME280;30157;55.512;37.764;2023-11-21T06:46:34;99592.88;;;-8.36;79.20
44198;BME280;30157;55.512;37.764;2023-11-21T06:49:00;99550.81;;;-8.64;79.03
44198;BME280;30157;55.512;37.764;2023-11-21T06:51:25;99603.84;;;-8.36;79.11
44198;BME280;30157;55.512;37.764;2023-11-21T06:53:51;99544.81;;;-8.66;79.04
44198;BME280;30157;55.512;37.764;2023-11-21T06:56:18;99534.63;;;-8.68;79.39
44198;BME280;30157;55.512;37.764;2023-11-21T06:58:45;99619.00;;;-8.22;79.54
44198;BME280;30157;55.512;37.764;2023-11-21T07:01:14;99618.00;;;-8.24;79.72
44198;BME280;30157;55.512;37.764;2023-11-21T07:03:41;99612.00;;;-8.27;79.91
44198;BME280;30157;55.512;37.764;2023-11-21T07:06:08;99600.44;;;-8.36;79.88
44198;BME280;30157;55.512;37.764;2023-11-21T07:08:33;99609.38;;;-8.28;80.06
44198;BME280;30157;55.512;37.764;2023-11-21T07:10:59;99578.16;;;-8.44;79.75
44198;BME280;30157;55.512;37.764;2023-11-21T07:13:25;99595.06;;;-8.29;79.43
44198;BME280;30157;55.512;37.764;2023-11-21T07:15:51;99621.06;;;-8.17;79.15
44198;BME280;30157;55.512;37.764;2023-11-21T07:18:17;99597.97;;;-8.23;78.31
44198;BME280;30157;55.512;37.764;2023-11-21T07:20:43;99542.63;;;-8.48;77.50
44198;BME280;30157;55.512;37.764;2023-11-21T07:23:09;99601.91;;;-7.88;77.69
44198;BME280;30157;55.512;37.764;2023-11-21T07:25:35;99602.81;;;-7.61;76.85
44198;BME280;30157;55.512;37.764;2023-11-21T07:28:01;99611.06;;;-7.36;76.09
44198;BME280;30157;55.512;37.764;2023-11-21T07:30:27;99612.31;;;-7.16;75.26
44198;BME280;30157;55.512;37.764;2023-11-21T07:32:53;99612.63;;;-7.52;74.00
44198;BME280;30157;55.512;37.764;2023-11-21T07:35:19;99612.22;;;-7.71;74.31
44198;BME280;30157;55.512;37.764;2023-11-21T07:37:45;99619.78;;;-7.71;74.74
44198;BME280;30157;55.512;37.764;2023-11-21T07:40:13;99512.50;;;-8.33;74.62
44198;BME280;30157;55.512;37.764;2023-11-21T07:42:39;99605.91;;;-7.78;73.89
44198;BME280;30157;55.512;37.764;2023-11-21T07:45:05;99622.50;;;-7.68;73.98
44198;BME280;30157;55.512;37.764;2023-11-21T07:47:32;99534.16;;;-8.23;75.08
44198;BME280;30157;55.512;37.764;2023-11-21T07:50:03;99442.88;;;-8.73;75.49
44198;BME280;30157;55.512;37.764;2023-11-21T07:52:31;99609.31;;;-6.97;74.67
44198;BME280;30157;55.512;37.764;2023-11-21T07:54:57;99607.44;;;-5.85;72.62
44198;BME280;30157;55.512;37.764;2023-11-21T07:57:23;99580.75;;;-5.50;70.57
44198;BME280;30157;55.512;37.764;2023-11-21T07:59:49;99601.00;;;-5.95;68.90
44198;BME280;30157;55.512;37.764;2023-11-21T08:02:15;99590.97;;;-6.38;69.87
44198;BME280;30157;55.512;37.764;2023-11-21T08:04:43;99603.19;;;-6.59;70.07
44198;BME280;30157;55.512;37.764;2023-11-21T08:07:08;99599.63;;;-6.76;70.37
44198;BME280;30157;55.512;37.764;2023-11-21T08:09:35;99598.50;;;-6.95;69.72
44198;BME280;30157;55.512;37.764;2023-11-21T08:12:01;99603.59;;;-7.08;70.48
44198;BME280;30157;55.512;37.764;2023-11-21T08:14:28;99570.84;;;-7.48;70.68
44198;BME280;30157;55.512;37.764;2023-11-21T08:16:54;99609.03;;;-7.42;71.26
44198;BME280;30157;55.512;37.764;2023-11-21T08:19:23;99609.03;;;-7.42;71.46
44198;BME280;30157;55.512;37.764;2023-11-21T08:21:51;99603.63;;;-7.48;71.38
44198;BME280;30157;55.512;37.764;2023-11-21T08:24:21;99606.41;;;-7.44;71.42
44198;BME280;30157;55.512;37.764;2023-11-21T08:26:47;99548.41;;;-7.97;71.80
44198;BME280;30157;55.512;37.764;2023-11-21T08:29:13;99617.25;;;-7.58;71.96
44198;BME280;30157;55.512;37.764;2023-11-21T08:31:39;99552.88;;;-7.93;72.36
44198;BME280;30157;55.512;37.764;2023-11-21T08:34:06;99592.28;;;-7.68;72.14
44198;BME280;30157;55.512;37.764;2023-11-21T08:36:32;99606.91;;;-7.63;71.96
44198;BME280;30157;55.512;37.764;2023-11-21T08:38:57;99617.38;;;-7.56;72.06
44198;BME280;30157;55.512;37.764;2023-11-21T08:41:23;99619.22;;;-7.54;71.20
44198;BME280;30157;55.512;37.764;2023-11-21T08:43:52;99556.56;;;-7.88;70.95
44198;BME280;30157;55.512;37.764;2023-11-21T08:46:19;99598.34;;;-7.65;70.98
44198;BME280;30157;55.512;37.764;2023-11-21T08:48:45;99612.53;;;-7.67;70.33
44198;BME280;30157;55.512;37.764;2023-11-21T08:51:11;99614.72;;;-7.71;70.40
44198;BME280;30157;55.512;37.764;2023-11-21T08:53:40;99569.16;;;-8.01;71.19
44198;BME280;30157;55.512;37.764;2023-11-21T08:56:06;99561.41;;;-8.04;71.02
44198;BME280;30157;55.512;37.764;2023-11-21T08:58:32;99622.03;;;-7.63;71.04
44198;BME280;30157;55.512;37.764;2023-11-21T09:00:58;99622.53;;;-7.55;70.84
44198;BME280;30157;55.512;37.764;2023-11-21T09:03:24;99624.16;;;-7.55;70.77
44198;BME280;30157;55.512;37.764;2023-11-21T09:05:50;99614.47;;;-7.63;70.63
44198;BME280;30157;55.512;37.764;2023-11-21T09:08:16;99633.97;;;-7.60;70.36
44198;BME280;30157;55.512;37.764;2023-11-21T09:10:42;99627.84;;;-7.64;70.24
44198;BME280;30157;55.512;37.764;2023-11-21T09:13:10;99620.66;;;-7.84;70.48
44198;BME280;30157;55.512;37.764;2023-11-21T09:15:36;99628.50;;;-7.80;70.38
44198;BME280;30157;55.512;37.764;2023-11-21T09:18:03;99622.66;;;-7.92;70.25
44198;BME280;30157;55.512;37.764;2023-11-21T09:20:28;99635.56;;;-7.87;69.72
44198;BME280;30157;55.512;37.764;2023-11-21T09:22:54;99644.00;;;-7.87;69.63
44198;BME280;30157;55.512;37.764;2023-11-21T09:25:20;99639.63;;;-7.89;69.97
44198;BME280;30157;55.512;37.764;2023-11-21T09:27:46;99630.41;;;-7.89;69.82
44198;BME280;30157;55.512;37.764;2023-11-21T09:30:12;99639.81;;;-7.86;70.20
44198;BME280;30157;55.512;37.764;2023-11-21T09:32:40;99630.97;;;-7.93;70.07
44198;BME280;30157;55.512;37.764;2023-11-21T09:35:06;99583.06;;;-8.20;70.16
44198;BME280;30157;55.512;37.764;2023-11-21T09:37:34;99650.97;;;-7.83;70.55
44198;BME280;30157;55.512;37.764;2023-11-21T09:40:04;99531.88;;;-8.46;70.99
44198;BME280;30157;55.512;37.764;2023-11-21T09:42:39;99642.19;;;-7.76;69.94
44198;BME280;30157;55.512;37.764;2023-11-21T09:45:27;99647.31;;;-7.74;69.45
44198;BME280;30157;55.512;37.764;2023-11-21T09:47:55;99617.94;;;-7.87;69.73
44198;BME280;30157;55.512;37.764;2023-11-21T09:50:23;99582.03;;;-8.10;69.91
44198;BME280;30157;55.512;37.764;2023-11-21T09:52:58;99566.13;;;-8.09;69.66
44198;BME280;30157;55.512;37.764;2023-11-21T09:55:28;99652.56;;;-7.58;70.10
44198;BME280;30157;55.512;37.764;2023-11-21T09:58:02;99649.84;;;-7.61;69.95
44198;BME280;30157;55.512;37.764;2023-11-21T10:00:30;99652.75;;;-7.68;69.96
44198;BME280;30157;55.512;37.764;2023-11-21T10:02:58;99634.78;;;-7.86;70.20
44198;BME280;30157;55.512;37.764;2023-11-21T10:05:25;99653.53;;;-7.69;70.33
44198;BME280;30157;55.512;37.764;2023-11-21T10:07:52;99661.19;;;-7.68;70.76
44198;BME280;30157;55.512;37.764;2023-11-21T10:10:19;99644.13;;;-7.72;70.83
44198;BME280;30157;55.512;37.764;2023-11-21T10:12:51;99650.72;;;-7.74;70.97
44198;BME280;30157;55.512;37.764;2023-11-21T10:15:24;99654.59;;;-7.79;71.46
44198;BME280;30157;55.512;37.764;2023-11-21T10:17:53;99602.28;;;-8.08;71.45
44198;BME280;30157;55.512;37.764;2023-11-21T10:20:20;99653.44;;;-7.71;71.80
44198;BME280;30157;55.512;37.764;2023-11-21T10:22:46;99631.59;;;-7.84;71.37
44198;BME280;30157;55.512;37.764;2023-11-21T10:25:12;99647.50;;;-7.71;71.41
44198;BME280;30157;55.512;37.764;2023-11-21T10:27:42;99643.25;;;-7.72;72.19
44198;BME280;30157;55.512;37.764;2023-11-21T10:30:09;99641.69;;;-7.70;72.34
44198;BME280;30157;55.512;37.764;2023-11-21T10:32:39;99641.13;;;-7.66;72.80
44198;BME280;30157;55.512;37.764;2023-11-21T10:35:07;99656.56;;;-7.62;73.29
44198;BME280;30157;55.512;37.764;2023-11-21T10:37:39;99639.50;;;-7.52;73.28
44198;BME280;30157;55.512;37.764;2023-11-21T10:40:11;99633.97;;;-7.60;72.13
44198;BME280;30157;55.512;37.764;2023-11-21T10:42:38;99639.69;;;-7.63;72.29
44198;BME280;30157;55.512;37.764;2023-11-21T10:45:05;99643.53;;;-7.68;72.72
44198;BME280;30157;55.512;37.764;2023-11-21T10:47:41;99639.25;;;-7.69;73.04
44198;BME280;30157;55.512;37.764;2023-11-21T10:50:07;99650.53;;;-7.64;73.07
44198;BME280;30157;55.512;37.764;2023-11-21T10:52:39;99641.59;;;-7.72;72.83
44198;BME280;30157;55.512;37.764;2023-11-21T10:55:20;99646.44;;;-7.75;73.15
44198;BME280;30157;55.512;37.764;2023-11-21T10:57:54;99640.13;;;-7.82;73.21
44198;BME280;30157;55.512;37.764;2023-11-21T11:00:24;99575.88;;;-8.27;72.79
44198;BME280;30157;55.512;37.764;2023-11-21T11:02:51;99630.97;;;-7.93;72.81
44198;BME280;30157;55.512;37.764;2023-11-21T11:05:21;99661.53;;;-7.88;72.50
44198;BME280;30157;55.512;37.764;2023-11-21T11:07:54;99660.06;;;-7.98;72.95
44198;BME280;30157;55.512;37.764;2023-11-21T11:10:26;99663.06;;;-7.90;73.14
44198;BME280;30157;55.512;37.764;2023-11-21T11:12:53;99664.72;;;-7.91;73.00
44198;BME280;30157;55.512;37.764;2023-11-21T11:15:21;99663.72;;;-7.93;73.06
44198;BME280;30157;55.512;37.764;2023-11-21T11:17:48;99674.72;;;-7.93;73.28
44198;BME280;30157;55.512;37.764;2023-11-21T11:20:15;99673.03;;;-7.92;73.60
44198;BME280;30157;55.512;37.764;2023-11-21T11:28:38;99680.13;;;-7.86;74.10
44198;BME280;30157;55.512;37.764;2023-11-21T11:33:58;99560.19;;;-8.62;74.29
44198;BME280;30157;55.512;37.764;2023-11-21T11:36:50;99681.13;;;-7.84;74.39
44198;BME280;30157;55.512;37.764;2023-11-21T11:39:34;99667.94;;;-7.80;74.24
44198;BME280;30157;55.512;37.764;2023-11-21T11:42:03;99650.94;;;-7.96;74.41
44198;BME280;30157;55.512;37.764;2023-11-21T11:47:28;99664.94;;;-7.74;73.23
44198;BME280;30157;55.512;37.764;2023-11-21T11:50:02;99672.50;;;-7.74;72.71
44198;BME280;30157;55.512;37.764;2023-11-21T11:52:51;99652.69;;;-7.95;72.98
44198;BME280;30157;55.512;37.764;2023-11-21T11:55:19;99681.41;;;-7.80;73.09
44198;BME280;30157;55.512;37.764;2023-11-21T11:57:50;99688.97;;;-7.80;73.04
44198;BME280;30157;55.512;37.764;2023-11-21T12:00:20;99670.63;;;-7.90;73.60
44198;BME280;30157;55.512;37.764;2023-11-21T12:03:02;99678.22;;;-7.77;73.78
44198;BME280;30157;55.512;37.764;2023-11-21T12:05:31;99640.09;;;-7.95;73.21
44198;BME280;30157;55.512;37.764;2023-11-21T12:08:03;99678.91;;;-7.66;73.22
44198;BME280;30157;55.512;37.764;2023-11-21T12:10:36;99685.81;;;-7.64;73.10
44198;BME280;30157;55.512;37.764;2023-11-21T12:13:08;99671.75;;;-7.73;72.43
44198;BME280;30157;55.512;37.764;2023-11-21T12:15:34;99660.78;;;-7.87;72.91
44198;BME280;30157;55.512;37.764;2023-11-21T12:18:01;99694.63;;;-7.70;73.06
44198;BME280;30157;55.512;37.764;2023-11-21T12:20:27;99647.81;;;-8.05;72.69
44198;BME280;30157;55.512;37.764;2023-11-21T12:22:55;99660.81;;;-7.99;73.18
44198;BME280;30157;55.512;37.764;2023-11-21T12:25:26;99676.91;;;-7.97;73.95
44198;BME280;30157;55.512;37.764;2023-11-21T12:27:58;99675.06;;;-8.00;74.29
44198;BME280;30157;55.512;37.764;2023-11-21T12:30:26;99694.88;;;-7.93;74.84
44198;BME280;30157;55.512;37.764;2023-11-21T12:32:57;99708.31;;;-7.92;75.28
44198;BME280;30157;55.512;37.764;2023-11-21T12:35:33;99692.25;;;-7.94;75.44
44198;BME280;30157;55.512;37.764;2023-11-21T12:38:01;99641.97;;;-8.18;76.03
44198;BME280;30157;55.512;37.764;2023-11-21T12:40:36;99705.75;;;-7.80;76.53
44198;BME280;30157;55.512;37.764;2023-11-21T12:43:02;99691.31;;;-7.83;76.57
44198;BME280;30157;55.512;37.764;2023-11-21T12:45:29;99654.50;;;-8.06;76.85
44198;BME280;30157;55.512;37.764;2023-11-21T12:48:04;99692.28;;;-7.81;76.88
44198;BME280;30157;55.512;37.764;2023-11-21T12:50:34;99645.19;;;-8.07;77.07
44198;BME280;30157;55.512;37.764;2023-11-21T12:53:07;99643.66;;;-8.05;77.12
44198;BME280;30157;55.512;37.764;2023-11-21T12:55:38;99696.84;;;-7.75;76.98
44198;BME280;30157;55.512;37.764;2023-11-21T12:58:06;99688.78;;;-7.83;76.79
44198;BME280;30157;55.512;37.764;2023-11-21T13:00:40;99679.28;;;-7.87;77.03
44198;BME280;30157;55.512;37.764;2023-11-21T13:03:09;99690.44;;;-7.83;76.55
44198;BME280;30157;55.512;37.764;2023-11-21T13:05:39;99709.69;;;-7.84;76.86